Accueil
METAR-TAF:

METAR-TAF

Aéroports :

Aérodrome de Logrogne

Logroño, Espagne

latitude: 42-27N, longitude: 002-20W, altitude: 353 m

Observation

Le bulletin a été fait il y a 30 minutes, à 00:30 UTC
Vent 6 kt de ouest
Température 15°C
Humidité 67%
Pression 1029 hPa
Visibilité 10 km ou plus
pas de nuages en-dessous de 1500 mètres et pas de cumulonimbus.

METAR: LELO 260030Z AUTO 28006KT CAVOK 15/09 Q1029

Heure: 03:00 (01:00 UTC)

Prévision

Le bulletin a été fait il y a 8 heures et 0 minutes, à 17:00 UTC
Prévision valable du 25 à 18 UTC au 26 à 03 UTC
Vent 8 kt de nord
Visibilité 10 km ou plus
Quelques nuages à une hauteur de 4000 ft
Evoluant progressivement
du 26 à 01 UTC au 26 à 03 UTC
Vent 10 kt de ouest

TAF: LELO 251700Z 2518/2603 01008KT 9999 FEW040 BECMG 2601/2603 28010KT

Observations et prévisions météorologiques de plus de 4000 aéroports (messages METAR et TAF).

Les stations disponibles sont représentées par des disques jaunes et rouges sur la carte.

Passer la souris dessus pour voir le nom de la station.

Cliquer dessus pour voir les observations et prévisions météorologiques.

Pour changer de carte: cliquez sur les boutons verts avec une croix noire pour zoomer, sur le bouton vert avec un tiret pour effectuer un zoom arrière, ou sur les flèches vertes pour les cartes adjacentes.


METAR-TAF: